sensor_id;sensor_type;location;lat;lon;timestamp;temperature;humidity
26655;DHT22;14278;50.784;4.630;2022-10-04T00:01:45;11.30;99.90
26655;DHT22;14278;50.784;4.630;2022-10-04T00:04:15;11.40;99.90
26655;DHT22;14278;50.784;4.630;2022-10-04T00:06:57;11.30;99.90
26655;DHT22;14278;50.784;4.630;2022-10-04T00:09:40;11.30;99.90
26655;DHT22;14278;50.784;4.630;2022-10-04T00:12:21;11.20;99.90
26655;DHT22;14278;50.784;4.630;2022-10-04T00:14:50;11.30;99.90
26655;DHT22;14278;50.784;4.630;2022-10-04T00:17:23;11.80;99.90
26655;DHT22;14278;50.784;4.630;2022-10-04T00:19:52;11.70;99.90
26655;DHT22;14278;50.784;4.630;2022-10-04T00:22:22;11.50;99.90
26655;DHT22;14278;50.784;4.630;2022-10-04T00:25:16;11.20;99.90
26655;DHT22;14278;50.784;4.630;2022-10-04T00:31:18;11.00;99.90
26655;DHT22;14278;50.784;4.630;2022-10-04T00:36:52;10.90;99.90
26655;DHT22;14278;50.784;4.630;2022-10-04T00:39:37;11.00;99.90
26655;DHT22;14278;50.784;4.630;2022-10-04T00:42:31;11.30;99.90
26655;DHT22;14278;50.784;4.630;2022-10-04T00:45:27;11.30;99.90
26655;DHT22;14278;50.784;4.630;2022-10-04T00:50:38;10.90;99.90
26655;DHT22;14278;50.784;4.630;2022-10-04T00:59:37;10.70;99.90
26655;DHT22;14278;50.784;4.630;2022-10-04T01:05:14;10.70;99.90
26655;DHT22;14278;50.784;4.630;2022-10-04T01:07:54;10.60;99.90
26655;DHT22;14278;50.784;4.630;2022-10-04T01:10:26;10.40;99.90
26655;DHT22;14278;50.784;4.630;2022-10-04T01:13:23;10.70;99.90
26655;DHT22;14278;50.784;4.630;2022-10-04T01:16:09;10.70;99.90
26655;DHT22;14278;50.784;4.630;2022-10-04T01:18:38;10.80;99.90
26655;DHT22;14278;50.784;4.630;2022-10-04T01:28:57;11.00;99.90
26655;DHT22;14278;50.784;4.630;2022-10-04T01:31:31;10.90;99.90
26655;DHT22;14278;50.784;4.630;2022-10-04T01:33:59;11.00;99.90
26655;DHT22;14278;50.784;4.630;2022-10-04T01:36:26;11.00;99.90
26655;DHT22;14278;50.784;4.630;2022-10-04T01:38:52;11.20;99.90
26655;DHT22;14278;50.784;4.630;2022-10-04T01:41:23;11.20;99.90
26655;DHT22;14278;50.784;4.630;2022-10-04T01:43:54;11.10;99.90
26655;DHT22;14278;50.784;4.630;2022-10-04T01:46:28;11.00;99.90
26655;DHT22;14278;50.784;4.630;2022-10-04T01:48:56;11.10;99.90
26655;DHT22;14278;50.784;4.630;2022-10-04T01:51:35;11.40;99.90
26655;DHT22;14278;50.784;4.630;2022-10-04T01:54:06;11.50;99.90
26655;DHT22;14278;50.784;4.630;2022-10-04T01:56:55;11.50;99.90
26655;DHT22;14278;50.784;4.630;2022-10-04T01:59:42;11.20;99.90
26655;DHT22;14278;50.784;4.630;2022-10-04T02:02:39;10.90;99.90
26655;DHT22;14278;50.784;4.630;2022-10-04T02:05:04;10.80;99.90
26655;DHT22;14278;50.784;4.630;2022-10-04T02:07:31;10.90;99.90
26655;DHT22;14278;50.784;4.630;2022-10-04T02:10:04;10.80;99.90
26655;DHT22;14278;50.784;4.630;2022-10-04T02:12:32;10.80;99.90
26655;DHT22;14278;50.784;4.630;2022-10-04T02:15:01;10.70;99.90
26655;DHT22;14278;50.784;4.630;2022-10-04T02:17:32;10.60;99.90
26655;DHT22;14278;50.784;4.630;2022-10-04T02:20:01;10.50;99.90
26655;DHT22;14278;50.784;4.630;2022-10-04T02:22:28;10.50;99.90
26655;DHT22;14278;50.784;4.630;2022-10-04T02:24:55;10.30;99.90
26655;DHT22;14278;50.784;4.630;2022-10-04T02:27:28;10.60;99.90
26655;DHT22;14278;50.784;4.630;2022-10-04T02:30:04;10.80;99.90
26655;DHT22;14278;50.784;4.630;2022-10-04T02:32:32;10.60;99.90
26655;DHT22;14278;50.784;4.630;2022-10-04T02:35:17;10.50;99.90
26655;DHT22;14278;50.784;4.630;2022-10-04T02:37:48;10.40;99.90
26655;DHT22;14278;50.784;4.630;2022-10-04T02:40:22;10.30;99.90
26655;DHT22;14278;50.784;4.630;2022-10-04T02:43:09;10.10;99.90
26655;DHT22;14278;50.784;4.630;2022-10-04T02:45:49;9.90;99.90
26655;DHT22;14278;50.784;4.630;2022-10-04T02:48:38;10.00;99.90
26655;DHT22;14278;50.784;4.630;2022-10-04T02:51:39;10.10;99.90
26655;DHT22;14278;50.784;4.630;2022-10-04T02:56:55;10.20;99.90
26655;DHT22;14278;50.784;4.630;2022-10-04T02:59:21;10.20;99.90
26655;DHT22;14278;50.784;4.630;2022-10-04T03:01:58;10.20;99.90
26655;DHT22;14278;50.784;4.630;2022-10-04T03:04:29;10.30;99.90
26655;DHT22;14278;50.784;4.630;2022-10-04T03:06:58;10.30;99.90
26655;DHT22;14278;50.784;4.630;2022-10-04T03:09:28;10.10;99.90
26655;DHT22;14278;50.784;4.630;2022-10-04T03:11:54;10.00;99.90
26655;DHT22;14278;50.784;4.630;2022-10-04T03:14:23;10.10;99.90
26655;DHT22;14278;50.784;4.630;2022-10-04T03:16:52;9.80;99.90
26655;DHT22;14278;50.784;4.630;2022-10-04T03:19:21;9.60;99.90
26655;DHT22;14278;50.784;4.630;2022-10-04T03:21:50;9.60;99.90
26655;DHT22;14278;50.784;4.630;2022-10-04T03:24:28;9.70;99.90
26655;DHT22;14278;50.784;4.630;2022-10-04T03:26:58;10.10;99.90
26655;DHT22;14278;50.784;4.630;2022-10-04T03:29:27;10.40;99.90
26655;DHT22;14278;50.784;4.630;2022-10-04T03:31:55;10.60;99.90
26655;DHT22;14278;50.784;4.630;2022-10-04T03:34:27;10.40;99.90
26655;DHT22;14278;50.784;4.630;2022-10-04T03:36:55;10.20;99.90
26655;DHT22;14278;50.784;4.630;2022-10-04T03:39:32;9.80;99.90
26655;DHT22;14278;50.784;4.630;2022-10-04T03:42:06;9.90;99.90
26655;DHT22;14278;50.784;4.630;2022-10-04T03:44:35;9.80;99.90
26655;DHT22;14278;50.784;4.630;2022-10-04T03:47:18;9.90;99.90
26655;DHT22;14278;50.784;4.630;2022-10-04T03:49:45;9.80;99.90
26655;DHT22;14278;50.784;4.630;2022-10-04T03:52:33;9.80;99.90
26655;DHT22;14278;50.784;4.630;2022-10-04T03:55:04;9.90;99.90
26655;DHT22;14278;50.784;4.630;2022-10-04T03:57:32;9.80;99.90
26655;DHT22;14278;50.784;4.630;2022-10-04T03:59:59;9.80;99.90
26655;DHT22;14278;50.784;4.630;2022-10-04T04:02:40;9.80;99.90
26655;DHT22;14278;50.784;4.630;2022-10-04T04:05:27;9.80;99.90
26655;DHT22;14278;50.784;4.630;2022-10-04T04:08:26;10.10;99.90
26655;DHT22;14278;50.784;4.630;2022-10-04T04:10:57;10.00;99.90
26655;DHT22;14278;50.784;4.630;2022-10-04T04:14:14;9.80;99.90
26655;DHT22;14278;50.784;4.630;2022-10-04T04:16:15;10.00;99.90
26655;DHT22;14278;50.784;4.630;2022-10-04T04:18:44;10.10;99.90
26655;DHT22;14278;50.784;4.630;2022-10-04T04:21:16;10.20;99.90
26655;DHT22;14278;50.784;4.630;2022-10-04T04:24:06;10.10;99.90
26655;DHT22;14278;50.784;4.630;2022-10-04T04:26:46;10.00;99.90
26655;DHT22;14278;50.784;4.630;2022-10-04T04:29:35;9.70;99.90
26655;DHT22;14278;50.784;4.630;2022-10-04T04:32:13;9.50;99.90
26655;DHT22;14278;50.784;4.630;2022-10-04T04:34:58;9.50;99.90
26655;DHT22;14278;50.784;4.630;2022-10-04T04:37:25;9.70;99.90
26655;DHT22;14278;50.784;4.630;2022-10-04T04:39:52;10.00;99.90
26655;DHT22;14278;50.784;4.630;2022-10-04T04:42:29;9.80;99.90
26655;DHT22;14278;50.784;4.630;2022-10-04T04:44:57;9.60;99.90
26655;DHT22;14278;50.784;4.630;2022-10-04T04:47:42;9.70;99.90
26655;DHT22;14278;50.784;4.630;2022-10-04T04:50:23;9.60;99.90
26655;DHT22;14278;50.784;4.630;2022-10-04T04:55:42;9.70;99.90
26655;DHT22;14278;50.784;4.630;2022-10-04T04:58:23;9.70;99.90
26655;DHT22;14278;50.784;4.630;2022-10-04T05:00:59;9.60;99.90
26655;DHT22;14278;50.784;4.630;2022-10-04T05:03:25;9.40;99.90
26655;DHT22;14278;50.784;4.630;2022-10-04T05:05:54;9.50;99.90
26655;DHT22;14278;50.784;4.630;2022-10-04T05:08:25;9.60;99.90
26655;DHT22;14278;50.784;4.630;2022-10-04T05:11:04;9.60;99.90
26655;DHT22;14278;50.784;4.630;2022-10-04T05:13:51;9.60;99.90
26655;DHT22;14278;50.784;4.630;2022-10-04T05:16:48;9.90;99.90
26655;DHT22;14278;50.784;4.630;2022-10-04T05:19:20;9.90;99.90
26655;DHT22;14278;50.784;4.630;2022-10-04T05:21:52;9.80;99.90
26655;DHT22;14278;50.784;4.630;2022-10-04T05:24:22;9.70;99.90
26655;DHT22;14278;50.784;4.630;2022-10-04T05:26:56;9.80;99.90
26655;DHT22;14278;50.784;4.630;2022-10-04T05:29:25;9.90;99.90
26655;DHT22;14278;50.784;4.630;2022-10-04T05:32:27;9.80;99.90
26655;DHT22;14278;50.784;4.630;2022-10-04T05:34:58;9.70;99.90
26655;DHT22;14278;50.784;4.630;2022-10-04T05:40:02;9.40;99.90
26655;DHT22;14278;50.784;4.630;2022-10-04T05:42:41;9.20;99.90
26655;DHT22;14278;50.784;4.630;2022-10-04T05:45:17;8.90;99.90
26655;DHT22;14278;50.784;4.630;2022-10-04T05:47:45;8.90;99.90
26655;DHT22;14278;50.784;4.630;2022-10-04T05:50:19;8.90;99.90
26655;DHT22;14278;50.784;4.630;2022-10-04T05:52:49;9.10;99.90
26655;DHT22;14278;50.784;4.630;2022-10-04T05:55:22;9.10;99.90
26655;DHT22;14278;50.784;4.630;2022-10-04T05:58:11;9.20;99.90
26655;DHT22;14278;50.784;4.630;2022-10-04T06:04:03;9.40;99.90
26655;DHT22;14278;50.784;4.630;2022-10-04T06:09:45;9.80;99.90
26655;DHT22;14278;50.784;4.630;2022-10-04T06:14:59;10.00;99.90
26655;DHT22;14278;50.784;4.630;2022-10-04T06:17:49;9.90;99.90
26655;DHT22;14278;50.784;4.630;2022-10-04T06:22:58;9.60;99.90
26655;DHT22;14278;50.784;4.630;2022-10-04T06:25:37;9.70;99.90
26655;DHT22;14278;50.784;4.630;2022-10-04T06:36:36;10.70;99.90
26655;DHT22;14278;50.784;4.630;2022-10-04T06:58:44;17.00;99.90
26655;DHT22;14278;50.784;4.630;2022-10-04T07:01:30;16.20;99.90
26655;DHT22;14278;50.784;4.630;2022-10-04T07:04:27;15.10;99.90
26655;DHT22;14278;50.784;4.630;2022-10-04T07:07:36;14.60;99.90
26655;DHT22;14278;50.784;4.630;2022-10-04T07:12:57;14.60;99.90
26655;DHT22;14278;50.784;4.630;2022-10-04T07:15:27;15.50;99.90
26655;DHT22;14278;50.784;4.630;2022-10-04T07:17:57;16.10;99.90
26655;DHT22;14278;50.784;4.630;2022-10-04T07:20:31;15.80;99.90
26655;DHT22;14278;50.784;4.630;2022-10-04T07:23:03;15.20;99.90
26655;DHT22;14278;50.784;4.630;2022-10-04T07:25:51;14.40;99.90
26655;DHT22;14278;50.784;4.630;2022-10-04T07:28:29;13.50;99.90
26655;DHT22;14278;50.784;4.630;2022-10-04T07:31:26;13.10;99.90
26655;DHT22;14278;50.784;4.630;2022-10-04T07:33:59;13.10;99.90
26655;DHT22;14278;50.784;4.630;2022-10-04T07:37:10;12.90;99.90
26655;DHT22;14278;50.784;4.630;2022-10-04T07:39:31;12.80;99.90
26655;DHT22;14278;50.784;4.630;2022-10-04T07:44:43;12.80;99.90
26655;DHT22;14278;50.784;4.630;2022-10-04T07:47:22;12.50;99.90
26655;DHT22;14278;50.784;4.630;2022-10-04T07:49:50;12.40;99.90
26655;DHT22;14278;50.784;4.630;2022-10-04T07:55:14;12.40;99.90
26655;DHT22;14278;50.784;4.630;2022-10-04T08:00:30;12.30;99.90
26655;DHT22;14278;50.784;4.630;2022-10-04T08:03:26;12.30;99.90
26655;DHT22;14278;50.784;4.630;2022-10-04T08:06:16;12.20;99.90
26655;DHT22;14278;50.784;4.630;2022-10-04T08:12:04;12.50;99.90
26655;DHT22;14278;50.784;4.630;2022-10-04T08:17:28;12.60;99.90
26655;DHT22;14278;50.784;4.630;2022-10-04T08:21:19;12.90;99.90
26655;DHT22;14278;50.784;4.630;2022-10-04T08:34:49;13.00;99.90
26655;DHT22;14278;50.784;4.630;2022-10-04T08:46:36;13.70;99.90
26655;DHT22;14278;50.784;4.630;2022-10-04T08:52:16;13.60;99.90
26655;DHT22;14278;50.784;4.630;2022-10-04T09:06:39;14.10;99.90
26655;DHT22;14278;50.784;4.630;2022-10-04T09:09:28;14.30;99.90
26655;DHT22;14278;50.784;4.630;2022-10-04T09:14:49;14.70;99.90
26655;DHT22;14278;50.784;4.630;2022-10-04T09:17:37;14.90;99.90
26655;DHT22;14278;50.784;4.630;2022-10-04T09:20:22;14.90;99.90
26655;DHT22;14278;50.784;4.630;2022-10-04T09:26:21;14.70;99.90
26655;DHT22;14278;50.784;4.630;2022-10-04T09:37:13;15.00;99.90
26655;DHT22;14278;50.784;4.630;2022-10-04T09:42:56;14.80;99.90
26655;DHT22;14278;50.784;4.630;2022-10-04T09:53:41;14.90;99.90
26655;DHT22;14278;50.784;4.630;2022-10-04T09:56:30;15.10;99.90
26655;DHT22;14278;50.784;4.630;2022-10-04T09:59:22;15.00;99.90
26655;DHT22;14278;50.784;4.630;2022-10-04T10:02:01;14.90;99.90
26655;DHT22;14278;50.784;4.630;2022-10-04T10:19:11;15.50;99.90
26655;DHT22;14278;50.784;4.630;2022-10-04T10:27:58;15.40;99.90
26655;DHT22;14278;50.784;4.630;2022-10-04T10:33:23;15.40;99.90
26655;DHT22;14278;50.784;4.630;2022-10-04T10:39:43;15.80;99.90
26655;DHT22;14278;50.784;4.630;2022-10-04T10:42:28;16.40;99.90
26655;DHT22;14278;50.784;4.630;2022-10-04T10:48:15;18.60;99.90
26655;DHT22;14278;50.784;4.630;2022-10-04T11:07:40;23.50;99.90
26655;DHT22;14278;50.784;4.630;2022-10-04T11:16:18;25.00;99.90
26655;DHT22;14278;50.784;4.630;2022-10-04T11:19:24;24.70;99.90
26655;DHT22;14278;50.784;4.630;2022-10-04T11:27:48;24.30;99.90
26655;DHT22;14278;50.784;4.630;2022-10-04T12:03:41;22.50;99.90
26655;DHT22;14278;50.784;4.630;2022-10-04T12:09:21;21.40;99.90
26655;DHT22;14278;50.784;4.630;2022-10-04T12:21:15;23.70;99.90
26655;DHT22;14278;50.784;4.630;2022-10-04T12:36:47;23.00;99.90
26655;DHT22;14278;50.784;4.630;2022-10-04T12:42:39;21.90;99.90
26655;DHT22;14278;50.784;4.630;2022-10-04T12:45:34;21.50;99.90
26655;DHT22;14278;50.784;4.630;2022-10-04T12:50:48;20.60;99.90
26655;DHT22;14278;50.784;4.630;2022-10-04T12:53:23;20.30;99.90
26655;DHT22;14278;50.784;4.630;2022-10-04T13:15:24;19.30;99.90
26655;DHT22;14278;50.784;4.630;2022-10-04T13:29:18;19.30;99.90
26655;DHT22;14278;50.784;4.630;2022-10-04T13:32:05;19.20;99.90
26655;DHT22;14278;50.784;4.630;2022-10-04T13:37:33;19.30;99.90
26655;DHT22;14278;50.784;4.630;2022-10-04T13:40:16;19.20;99.90
26655;DHT22;14278;50.784;4.630;2022-10-04T13:45:47;19.30;99.90
26655;DHT22;14278;50.784;4.630;2022-10-04T13:49:02;19.20;99.90
26655;DHT22;14278;50.784;4.630;2022-10-04T13:54:29;19.20;99.90
26655;DHT22;14278;50.784;4.630;2022-10-04T14:05:37;19.40;99.90
26655;DHT22;14278;50.784;4.630;2022-10-04T14:13:57;19.30;99.90
26655;DHT22;14278;50.784;4.630;2022-10-04T14:20:08;19.00;99.90
26655;DHT22;14278;50.784;4.630;2022-10-04T14:25:32;19.10;99.90
26655;DHT22;14278;50.784;4.630;2022-10-04T14:31:35;19.10;99.90
26655;DHT22;14278;50.784;4.630;2022-10-04T14:34:24;19.20;99.90
26655;DHT22;14278;50.784;4.630;2022-10-04T14:37:09;18.90;99.90
26655;DHT22;14278;50.784;4.630;2022-10-04T14:40:11;18.70;99.90
26655;DHT22;14278;50.784;4.630;2022-10-04T14:48:45;19.00;99.90
26655;DHT22;14278;50.784;4.630;2022-10-04T14:51:28;18.70;99.90
26655;DHT22;14278;50.784;4.630;2022-10-04T14:54:14;18.70;99.90
26655;DHT22;14278;50.784;4.630;2022-10-04T14:56:51;18.50;99.90
26655;DHT22;14278;50.784;4.630;2022-10-04T15:00:09;18.70;99.90
26655;DHT22;14278;50.784;4.630;2022-10-04T15:07:50;18.60;99.90
26655;DHT22;14278;50.784;4.630;2022-10-04T15:10:37;18.60;99.90
26655;DHT22;14278;50.784;4.630;2022-10-04T15:13:19;18.50;99.90
26655;DHT22;14278;50.784;4.630;2022-10-04T15:18:55;18.30;99.90
26655;DHT22;14278;50.784;4.630;2022-10-04T15:21:40;18.40;99.90
26655;DHT22;14278;50.784;4.630;2022-10-04T15:30:25;18.30;99.90
26655;DHT22;14278;50.784;4.630;2022-10-04T15:33:11;18.40;99.90
26655;DHT22;14278;50.784;4.630;2022-10-04T15:36:03;18.50;99.90
26655;DHT22;14278;50.784;4.630;2022-10-04T15:38:49;18.40;99.90
26655;DHT22;14278;50.784;4.630;2022-10-04T15:41:25;18.30;99.90
26655;DHT22;14278;50.784;4.630;2022-10-04T15:44:27;18.20;99.90
26655;DHT22;14278;50.784;4.630;2022-10-04T15:58:31;18.10;99.90
26655;DHT22;14278;50.784;4.630;2022-10-04T16:03:40;17.90;99.90
26655;DHT22;14278;50.784;4.630;2022-10-04T16:06:29;18.00;99.90
26655;DHT22;14278;50.784;4.630;2022-10-04T16:09:24;17.90;99.90
26655;DHT22;14278;50.784;4.630;2022-10-04T16:11:55;18.00;99.90
26655;DHT22;14278;50.784;4.630;2022-10-04T16:14:37;18.10;99.90
26655;DHT22;14278;50.784;4.630;2022-10-04T16:22:34;18.00;99.90
26655;DHT22;14278;50.784;4.630;2022-10-04T16:30:32;17.90;99.90
26655;DHT22;14278;50.784;4.630;2022-10-04T16:36:06;17.70;99.90
26655;DHT22;14278;50.784;4.630;2022-10-04T16:38:47;17.70;99.90
26655;DHT22;14278;50.784;4.630;2022-10-04T16:42:01;17.60;99.90
26655;DHT22;14278;50.784;4.630;2022-10-04T16:44:46;17.40;99.90
26655;DHT22;14278;50.784;4.630;2022-10-04T16:47:38;17.30;99.90
26655;DHT22;14278;50.784;4.630;2022-10-04T16:53:29;17.10;99.90
26655;DHT22;14278;50.784;4.630;2022-10-04T16:56:19;17.20;99.90
26655;DHT22;14278;50.784;4.630;2022-10-04T16:59:00;17.10;99.90
26655;DHT22;14278;50.784;4.630;2022-10-04T17:06:56;17.00;99.90
26655;DHT22;14278;50.784;4.630;2022-10-04T17:12:18;17.00;99.90
26655;DHT22;14278;50.784;4.630;2022-10-04T17:17:45;16.70;99.90
26655;DHT22;14278;50.784;4.630;2022-10-04T17:23:20;16.40;99.90
26655;DHT22;14278;50.784;4.630;2022-10-04T17:26:10;16.50;99.90
26655;DHT22;14278;50.784;4.630;2022-10-04T17:28:55;16.50;99.90
26655;DHT22;14278;50.784;4.630;2022-10-04T17:43:07;16.60;99.90
26655;DHT22;14278;50.784;4.630;2022-10-04T17:48:30;16.00;99.90
26655;DHT22;14278;50.784;4.630;2022-10-04T17:54:17;15.60;99.90
26655;DHT22;14278;50.784;4.630;2022-10-04T17:59:52;15.40;99.90
26655;DHT22;14278;50.784;4.630;2022-10-04T18:05:24;15.30;99.90
26655;DHT22;14278;50.784;4.630;2022-10-04T18:11:00;15.20;99.90
26655;DHT22;14278;50.784;4.630;2022-10-04T18:13:38;15.20;99.90
26655;DHT22;14278;50.784;4.630;2022-10-04T18:16:22;15.20;99.90
26655;DHT22;14278;50.784;4.630;2022-10-04T18:18:50;15.40;99.90
26655;DHT22;14278;50.784;4.630;2022-10-04T18:21:29;15.50;99.90
26655;DHT22;14278;50.784;4.630;2022-10-04T18:27:24;15.70;99.90
26655;DHT22;14278;50.784;4.630;2022-10-04T18:34:56;15.40;99.90
26655;DHT22;14278;50.784;4.630;2022-10-04T18:37:35;15.30;99.90
26655;DHT22;14278;50.784;4.630;2022-10-04T18:40:26;15.10;99.90
26655;DHT22;14278;50.784;4.630;2022-10-04T18:42:57;15.00;99.90
26655;DHT22;14278;50.784;4.630;2022-10-04T18:45:26;15.00;99.90
26655;DHT22;14278;50.784;4.630;2022-10-04T18:47:55;15.00;99.90
26655;DHT22;14278;50.784;4.630;2022-10-04T18:50:40;15.10;99.90
26655;DHT22;14278;50.784;4.630;2022-10-04T18:56:04;15.30;99.90
26655;DHT22;14278;50.784;4.630;2022-10-04T18:59:06;15.30;99.90
26655;DHT22;14278;50.784;4.630;2022-10-04T19:10:12;14.90;99.90
26655;DHT22;14278;50.784;4.630;2022-10-04T19:13:11;14.80;99.90
26655;DHT22;14278;50.784;4.630;2022-10-04T19:16:01;14.70;99.90
26655;DHT22;14278;50.784;4.630;2022-10-04T19:18:45;14.70;99.90
26655;DHT22;14278;50.784;4.630;2022-10-04T19:21:48;14.90;99.90
26655;DHT22;14278;50.784;4.630;2022-10-04T19:27:04;14.70;99.90
26655;DHT22;14278;50.784;4.630;2022-10-04T19:40:53;14.50;99.90
26655;DHT22;14278;50.784;4.630;2022-10-04T19:49:00;14.30;99.90
26655;DHT22;14278;50.784;4.630;2022-10-04T19:51:43;14.30;99.90
26655;DHT22;14278;50.784;4.630;2022-10-04T19:54:19;14.30;99.90
26655;DHT22;14278;50.784;4.630;2022-10-04T19:56:48;14.40;99.90
26655;DHT22;14278;50.784;4.630;2022-10-04T19:59:38;14.30;99.90
26655;DHT22;14278;50.784;4.630;2022-10-04T20:02:08;14.70;99.90
26655;DHT22;14278;50.784;4.630;2022-10-04T20:04:34;14.80;99.90
26655;DHT22;14278;50.784;4.630;2022-10-04T20:07:23;14.60;99.90
26655;DHT22;14278;50.784;4.630;2022-10-04T20:10:18;14.60;99.90
26655;DHT22;14278;50.784;4.630;2022-10-04T20:17:59;15.30;99.90
26655;DHT22;14278;50.784;4.630;2022-10-04T20:23:05;15.50;99.90
26655;DHT22;14278;50.784;4.630;2022-10-04T20:25:57;15.50;99.90
26655;DHT22;14278;50.784;4.630;2022-10-04T20:33:44;15.30;99.90
26655;DHT22;14278;50.784;4.630;2022-10-04T20:44:40;15.40;99.90
26655;DHT22;14278;50.784;4.630;2022-10-04T20:47:20;15.30;99.90
26655;DHT22;14278;50.784;4.630;2022-10-04T20:49:52;15.30;99.90
26655;DHT22;14278;50.784;4.630;2022-10-04T20:52:18;15.50;99.90
26655;DHT22;14278;50.784;4.630;2022-10-04T20:54:50;15.80;99.90
26655;DHT22;14278;50.784;4.630;2022-10-04T20:57:19;15.60;99.90
26655;DHT22;14278;50.784;4.630;2022-10-04T20:59:52;15.60;99.90
26655;DHT22;14278;50.784;4.630;2022-10-04T21:02:20;15.70;99.90
26655;DHT22;14278;50.784;4.630;2022-10-04T21:04:47;15.70;99.90
26655;DHT22;14278;50.784;4.630;2022-10-04T21:07:19;15.60;99.90
26655;DHT22;14278;50.784;4.630;2022-10-04T21:09:45;15.50;99.90
26655;DHT22;14278;50.784;4.630;2022-10-04T21:12:39;15.30;99.90
26655;DHT22;14278;50.784;4.630;2022-10-04T21:15:18;15.30;99.90
26655;DHT22;14278;50.784;4.630;2022-10-04T21:18:07;15.40;99.90
26655;DHT22;14278;50.784;4.630;2022-10-04T21:20:52;15.40;99.90
26655;DHT22;14278;50.784;4.630;2022-10-04T21:25:50;15.50;99.90
26655;DHT22;14278;50.784;4.630;2022-10-04T21:28:30;15.50;99.90
26655;DHT22;14278;50.784;4.630;2022-10-04T21:30:56;15.60;99.90
26655;DHT22;14278;50.784;4.630;2022-10-04T21:33:24;15.50;99.90
26655;DHT22;14278;50.784;4.630;2022-10-04T21:35:54;15.60;99.90
26655;DHT22;14278;50.784;4.630;2022-10-04T21:38:20;15.50;99.90
26655;DHT22;14278;50.784;4.630;2022-10-04T21:40:46;15.80;99.90
26655;DHT22;14278;50.784;4.630;2022-10-04T21:43:15;15.70;99.90
26655;DHT22;14278;50.784;4.630;2022-10-04T21:45:42;15.60;99.90
26655;DHT22;14278;50.784;4.630;2022-10-04T21:48:12;15.40;99.90
26655;DHT22;14278;50.784;4.630;2022-10-04T21:50:39;15.30;99.90
26655;DHT22;14278;50.784;4.630;2022-10-04T21:53:05;15.40;99.90
26655;DHT22;14278;50.784;4.630;2022-10-04T21:55:32;15.30;99.90
26655;DHT22;14278;50.784;4.630;2022-10-04T21:57:59;15.30;99.90
26655;DHT22;14278;50.784;4.630;2022-10-04T22:00:27;15.40;99.90
26655;DHT22;14278;50.784;4.630;2022-10-04T22:02:53;15.60;99.90
26655;DHT22;14278;50.784;4.630;2022-10-04T22:05:19;15.70;99.90
26655;DHT22;14278;50.784;4.630;2022-10-04T22:07:47;15.80;99.90
26655;DHT22;14278;50.784;4.630;2022-10-04T22:10:13;15.80;99.90
26655;DHT22;14278;50.784;4.630;2022-10-04T22:12:44;15.90;99.90
26655;DHT22;14278;50.784;4.630;2022-10-04T22:15:11;15.90;99.90
26655;DHT22;14278;50.784;4.630;2022-10-04T22:17:44;15.80;99.90
26655;DHT22;14278;50.784;4.630;2022-10-04T22:20:10;15.90;99.90
26655;DHT22;14278;50.784;4.630;2022-10-04T22:22:36;15.90;99.90
26655;DHT22;14278;50.784;4.630;2022-10-04T22:25:13;15.90;99.90
26655;DHT22;14278;50.784;4.630;2022-10-04T22:27:41;15.80;99.90
26655;DHT22;14278;50.784;4.630;2022-10-04T22:30:24;15.80;99.90
26655;DHT22;14278;50.784;4.630;2022-10-04T22:32:56;16.00;99.90
26655;DHT22;14278;50.784;4.630;2022-10-04T22:35:28;16.10;99.90
26655;DHT22;14278;50.784;4.630;2022-10-04T22:38:00;15.80;99.90
26655;DHT22;14278;50.784;4.630;2022-10-04T22:40:30;15.90;99.90
26655;DHT22;14278;50.784;4.630;2022-10-04T22:42:56;15.70;99.90
26655;DHT22;14278;50.784;4.630;2022-10-04T22:45:27;15.50;99.90
26655;DHT22;14278;50.784;4.630;2022-10-04T22:47:56;15.20;99.90
26655;DHT22;14278;50.784;4.630;2022-10-04T22:50:34;15.60;99.90
26655;DHT22;14278;50.784;4.630;2022-10-04T22:53:21;15.60;99.90
26655;DHT22;14278;50.784;4.630;2022-10-04T22:55:51;15.70;99.90
26655;DHT22;14278;50.784;4.630;2022-10-04T22:58:17;15.80;99.90
26655;DHT22;14278;50.784;4.630;2022-10-04T23:00:45;15.80;99.90
26655;DHT22;14278;50.784;4.630;2022-10-04T23:03:23;15.90;99.90
26655;DHT22;14278;50.784;4.630;2022-10-04T23:05:49;15.90;99.90
26655;DHT22;14278;50.784;4.630;2022-10-04T23:08:15;16.00;99.90
26655;DHT22;14278;50.784;4.630;2022-10-04T23:10:43;16.00;99.90
26655;DHT22;14278;50.784;4.630;2022-10-04T23:13:09;16.00;99.90
26655;DHT22;14278;50.784;4.630;2022-10-04T23:15:35;15.70;99.90
26655;DHT22;14278;50.784;4.630;2022-10-04T23:18:04;15.70;99.90
26655;DHT22;14278;50.784;4.630;2022-10-04T23:20:35;15.90;99.90
26655;DHT22;14278;50.784;4.630;2022-10-04T23:23:04;15.80;99.90
26655;DHT22;14278;50.784;4.630;2022-10-04T23:25:34;15.70;99.90
26655;DHT22;14278;50.784;4.630;2022-10-04T23:28:06;15.80;99.90
26655;DHT22;14278;50.784;4.630;2022-10-04T23:30:36;15.90;99.90
26655;DHT22;14278;50.784;4.630;2022-10-04T23:33:05;15.80;99.90
26655;DHT22;14278;50.784;4.630;2022-10-04T23:35:36;15.70;99.90
26655;DHT22;14278;50.784;4.630;2022-10-04T23:38:03;15.80;99.90
26655;DHT22;14278;50.784;4.630;2022-10-04T23:40:31;15.80;99.90
26655;DHT22;14278;50.784;4.630;2022-10-04T23:42:58;15.90;99.90
26655;DHT22;14278;50.784;4.630;2022-10-04T23:45:25;15.80;99.90
26655;DHT22;14278;50.784;4.630;2022-10-04T23:47:54;15.90;99.90
26655;DHT22;14278;50.784;4.630;2022-10-04T23:50:24;15.80;99.90
26655;DHT22;14278;50.784;4.630;2022-10-04T23:52:51;15.90;99.90
26655;DHT22;14278;50.784;4.630;2022-10-04T23:55:21;15.80;99.90
26655;DHT22;14278;50.784;4.630;2022-10-04T23:57:48;15.90;99.90
